Latest Weather Observations for Campbelltown

IDN60801

Issued at 5:32 pm EST Friday 3 July 2015 (issued every 30 minutes, with the page automatically refreshed every 10 minutes)

About weather observations | Map of weather stations | Latest weather observations for NSW | Other Formats
Station Details ID: 068257 Name: CAMPBELLTOWN (MOUNT ANNAN) Lat: -34.06 Lon: 150.77 Height: 112.0 m
Data from the previous 72 hours. | See also: Recent months at Campbelltown
Date/Time
EST
Temp
°C
App
Temp
°C
Dew
Point
Rel
Hum
%
Delta-T
°C
Wind Press
QNH
hPa
Press
MSL
hPa
Rain
since 9 am
mm
Dir
 
Spd
km/h
Gust
km/h
Spd
kts
Gust
kts
03/05:30pm 8.7 7.4 3.9 72 2.1 CALM 0 4 0 2 - - 0.0
03/05:00pm 9.3 7.8 2.9 64 2.7 CALM 0 0 0 0 - - 0.0
03/04:30pm 11.7 10.1 2.5 53 4.0 CALM 0 0 0 0 - - 0.0
03/04:00pm 14.3 11.3 0.5 39 5.9 NNW 6 7 3 4 - - 0.0
03/03:30pm 14.3 10.6 0.2 38 6.0 NNW 9 13 5 7 - - 0.0
03/03:00pm 14.4 11.0 -0.5 36 6.2 NNW 7 9 4 5 - - 0.0
03/02:30pm 14.8 11.8 1.0 39 6.0 N 6 9 3 5 - - 0.0
03/02:00pm 14.7 11.1 0.9 39 6.0 SW 9 15 5 8 - - 0.0
03/01:30pm 14.7 11.2 1.3 40 5.8 WSW 9 13 5 7 - - 0.0
03/01:00pm 14.1 10.6 1.4 42 5.5 SW 9 15 5 8 - - 0.0
03/12:30pm 14.1 10.7 2.0 44 5.3 SSW 9 19 5 10 - - 0.0
03/12:00pm 13.6 9.9 2.2 46 5.0 SW 11 19 6 10 - - 0.0
03/11:30am 13.0 8.8 1.7 46 4.9 SSW 13 20 7 11 - - 0.0
03/11:00am 12.8 8.8 2.9 51 4.4 SSW 13 20 7 11 - - 0.0
03/10:30am 11.9 8.2 2.4 52 4.1 SSW 11 20 6 11 - - 0.0
03/10:00am 10.7 7.4 2.5 57 3.5 SSW 9 15 5 8 - - 0.0
03/09:30am 8.4 5.0 1.6 62 2.8 SW 9 17 5 9 - - 0.0
03/09:00am 7.1 4.0 1.2 66 2.4 SSW 7 13 4 7 - - 0.0
03/08:30am 5.3 2.1 0.5 71 1.9 SW 7 13 4 7 - - 0.0
03/08:00am 3.2 0.1 0.3 81 1.1 SSW 6 9 3 5 - - 0.0
03/07:30am 0.7 -1.4 -0.9 89 0.6 CALM 0 0 0 0 - - 0.0
03/07:00am 0.9 -1.2 -0.7 89 0.6 CALM 0 0 0 0 - - 0.0
03/06:30am 1.8 -0.4 -1.3 80 1.1 CALM 0 6 0 3 - - 0.0
03/06:00am 2.9 -0.6 -1.1 75 1.5 SSW 7 13 4 7 - - 0.0
03/05:30am 3.5 -0.3 -0.9 73 1.6 SSW 9 15 5 8 - - 0.0
03/05:00am 2.2 -1.1 -1.2 78 1.2 SSW 6 9 3 5 - - 0.0
03/04:30am 4.3 0.8 -1.3 67 2.1 SSW 7 15 4 8 - - 0.0
03/04:00am 3.2 -0.7 -1.2 73 1.6 SW 9 11 5 6 - - 0.0
03/03:30am 4.2 0.0 -1.0 69 1.9 SW 11 17 6 9 - - 0.0
03/03:00am 3.7 -0.1 -0.9 72 1.7 SW 9 17 5 9 - - 0.0
03/02:30am 4.1 0.3 -0.9 70 1.9 SSW 9 13 5 7 - - 0.0
03/02:00am 4.5 0.7 -0.7 69 1.9 SW 9 15 5 8 - - 0.0
03/01:30am 3.6 0.3 -0.2 76 1.4 SW 7 9 4 5 - - 0.0
03/01:00am 5.0 0.9 -0.4 68 2.0 SW 11 15 6 8 - - 0.0
03/12:30am 5.3 1.6 -0.1 68 2.1 SW 9 15 5 8 - - 0.0
03/12:00am 5.4 1.8 0.4 70 1.9 SSW 9 11 5 6 - - 0.0
 
Date/Time
EST
Temp
°C
App
Temp
°C
Dew
Point
Rel
Hum
%
Delta-T
°C
Wind Press
QNH
hPa
Press
MSL
hPa
Rain
since 9 am
mm
Dir
 
Spd
km/h
Gust
km/h
Spd
kts
Gust
kts
02/11:30pm 4.7 1.1 0.7 75 1.6 SW 9 13 5 7 - - 0.0
02/11:00pm 3.7 1.1 1.1 83 1.0 SSW 4 7 2 4 - - 0.0
02/10:30pm 4.7 2.2 1.6 80 1.2 SSW 4 6 2 3 - - 0.0
02/10:00pm 6.4 4.3 1.5 71 2.0 SSW 2 6 1 3 - - 0.0
02/09:30pm 8.1 4.7 1.7 64 2.6 SSW 9 15 5 8 - - 0.0
02/09:00pm 8.6 5.2 1.7 62 2.9 SW 9 15 5 8 - - 0.0
02/08:30pm 9.5 5.3 1.7 58 3.3 SSW 13 20 7 11 - - 0.0
02/08:00pm 10.0 5.8 1.4 55 3.6 SSW 13 24 7 13 - - 0.0
02/07:30pm 10.6 6.7 1.4 53 3.9 SW 11 20 6 11 - - 0.0
02/07:00pm 10.7 6.4 0.7 50 4.1 SW 13 24 7 13 - - 0.0
02/06:30pm 10.9 6.5 0.3 48 4.4 SW 13 26 7 14 - - 0.0
02/06:00pm 11.2 6.9 1.2 50 4.2 WSW 13 24 7 13 - - 0.0
02/05:30pm 11.5 7.0 2.0 52 4.1 WSW 15 26 8 14 - - 0.0
02/05:00pm 11.8 7.5 3.1 55 3.8 WSW 15 30 8 16 - - 0.0
02/04:30pm 12.4 7.3 2.8 52 4.2 W 19 39 10 21 - - 0.0
02/04:00pm 13.1 8.3 2.6 49 4.6 W 17 33 9 18 - - 0.0
02/03:30pm 13.3 8.9 2.8 49 4.7 WSW 15 26 8 14 - - 0.0
02/03:00pm 15.0 9.8 3.5 46 5.3 SW 20 44 11 24 - - 0.0
02/02:30pm 14.7 10.0 3.2 46 5.2 WSW 17 28 9 15 - - 0.0
02/02:00pm 15.0 10.7 3.2 45 5.4 WSW 15 24 8 13 - - 0.0
02/01:30pm 15.3 11.4 3.5 45 5.4 WSW 13 22 7 12 - - 0.0
02/01:00pm 15.1 10.3 2.6 43 5.6 WSW 17 35 9 19 - - 0.0
02/12:30pm 14.6 9.2 2.5 44 5.4 SW 20 33 11 18 - - 0.0
02/12:00pm 14.5 9.9 3.6 48 5.0 SW 17 30 9 16 - - 0.0
02/11:30am 13.7 9.1 3.5 50 4.6 WSW 17 33 9 18 - - 0.0
02/11:00am 13.0 7.9 2.8 50 4.5 SW 19 30 10 16 - - 0.0
02/10:30am 12.2 7.5 3.2 54 4.0 WSW 17 28 9 15 - - 0.0
02/10:00am 11.6 7.3 3.4 57 3.6 WSW 15 22 8 12 - - 0.0
02/09:30am 10.6 6.7 3.6 62 3.1 SW 13 20 7 11 - - 0.0
02/09:00am 9.0 6.5 4.0 71 2.2 WSW 6 9 3 5 - - 0.2
02/08:30am 7.2 5.1 4.0 80 1.4 W 4 7 2 4 - - 0.2
02/08:00am 5.5 2.7 3.2 85 1.0 SW 7 11 4 6 - - 0.2
02/07:30am 3.8 1.0 2.3 90 0.6 SW 6 7 3 4 - - 0.2
02/07:00am 3.4 0.6 1.9 90 0.6 SW 6 7 3 4 - - 0.2
02/06:30am 2.6 -0.3 1.3 91 0.5 S 6 7 3 4 - - 0.2
02/06:00am 2.3 -0.6 1.6 95 0.3 SW 6 7 3 4 - - 0.2
02/05:30am 1.5 -0.4 0.8 95 0.3 CALM 0 0 0 0 - - 0.2
02/05:00am 1.8 -0.1 0.6 92 0.4 CALM 0 0 0 0 - - 0.2
02/04:30am 2.7 -0.3 0.9 88 0.7 S 6 6 3 3 - - 0.2
02/04:00am 4.1 1.2 1.6 84 1.0 SSW 6 9 3 5 - - 0.2
02/03:30am 3.5 1.6 0.7 82 1.1 CALM 0 0 0 0 - - 0.2
02/03:00am 5.9 3.0 1.2 72 1.9 WSW 6 9 3 5 - - 0.2
02/02:30am 5.9 3.0 1.4 73 1.8 WSW 6 9 3 5 - - 0.2
02/02:00am 7.1 3.7 2.0 70 2.1 SW 9 15 5 8 - - 0.2
02/01:30am 4.9 1.6 2.6 85 0.9 SSW 9 13 5 7 - - 0.2
02/01:00am 2.3 -0.1 1.9 97 0.2 SSW 4 7 2 4 - - 0.2
02/12:30am 2.5 0.8 1.9 96 0.2 CALM 0 0 0 0 - - 0.2
02/12:00am 2.5 0.7 1.3 92 0.5 CALM 0 0 0 0 - - 0.2
 
Date/Time
EST
Temp
°C
App
Temp
°C
Dew
Point
Rel
Hum
%
Delta-T
°C
Wind Press
QNH
hPa
Press
MSL
hPa
Rain
since 9 am
mm
Dir
 
Spd
km/h
Gust
km/h
Spd
kts
Gust
kts
01/11:30pm 3.7 1.7 2.2 90 0.6 S 2 7 1 4 - - 0.2
01/11:00pm 4.8 2.9 2.8 87 0.8 SSW 2 9 1 5 - - 0.2
01/10:30pm 5.5 2.9 3.0 84 1.0 SSW 6 9 3 5 - - 0.2
01/10:00pm 6.2 3.5 3.5 83 1.1 SSW 7 11 4 6 - - 0.2
01/09:30pm 6.5 4.0 3.8 83 1.2 S 6 7 3 4 - - 0.2
01/09:00pm 6.6 4.0 4.3 85 1.0 SSW 7 9 4 5 - - 0.2
01/08:30pm 7.2 4.7 4.9 85 1.0 SSW 7 13 4 7 - - 0.2
01/08:00pm 6.9 4.5 5.2 89 0.8 SSW 7 9 4 5 - - 0.2
01/07:30pm 7.5 4.8 5.8 89 0.8 SSW 9 13 5 7 - - 0.2
01/07:00pm 7.5 5.2 4.8 83 1.2 S 6 9 3 5 - - 0.2
01/06:30pm 7.9 5.6 4.8 81 1.4 SSW 6 9 3 5 - - 0.2
01/06:00pm 8.5 7.3 4.7 77 1.7 CALM 0 0 0 0 - - 0.2
01/05:30pm 9.1 6.8 4.7 74 2.0 SSW 6 7 3 4 - - 0.2
01/05:00pm 10.8 8.5 4.7 66 2.8 SSW 6 7 3 4 - - 0.2
01/04:30pm 13.8 11.2 4.4 53 4.3 SW 7 11 4 6 - - 0.2
01/04:00pm 14.9 12.0 4.6 50 4.8 SW 9 13 5 7 - - 0.2
01/03:30pm 15.4 12.0 3.9 46 5.3 SW 11 17 6 9 - - 0.2
01/03:00pm 15.7 13.3 4.1 46 5.4 SW 6 13 3 7 - - 0.2
01/02:30pm 15.6 12.7 4.9 49 5.1 WSW 9 13 5 7 - - 0.2
01/02:00pm 15.8 13.3 4.8 48 5.2 WNW 7 13 4 7 - - 0.0
01/01:30pm 15.0 11.9 3.8 47 5.2 W 9 15 5 8 - - 0.0
01/01:00pm 14.6 11.4 3.1 46 5.2 W 9 15 5 8 - - 0.0
01/12:30pm 14.0 10.4 3.2 48 4.9 SSW 11 20 6 11 - - 0.0
01/12:00pm 13.5 9.9 3.0 49 4.7 WSW 11 19 6 10 - - 0.0
01/11:30am 13.4 9.5 1.4 44 5.2 W 11 20 6 11 - - 0.0
01/11:00am 13.8 10.7 1.5 43 5.3 WSW 7 13 4 7 - - 0.0
01/10:30am 12.7 9.4 2.6 50 4.4 WSW 9 17 5 9 - - 0.0
01/10:00am 11.6 8.2 3.9 59 3.5 SW 11 17 6 9 - - 0.0
01/09:30am 10.6 7.4 3.2 60 3.2 SSW 9 17 5 9 - - 0.0
01/09:00am 9.8 6.3 3.3 64 2.8 SSW 11 20 6 11 - - 0.4
01/08:30am 8.9 5.6 4.3 73 2.0 S 11 15 6 8 - - 0.4
01/08:00am 8.8 5.9 4.4 74 1.9 S 9 17 5 9 - - 0.4
01/07:30am 8.5 5.7 5.3 80 1.4 S 9 17 5 9 - - 0.4
01/07:00am 8.6 5.9 5.7 82 1.3 S 9 17 5 9 - - 0.4
01/06:30am 8.9 6.7 5.5 79 1.5 SSW 6 13 3 7 - - 0.4
01/06:00am 9.3 7.2 5.9 79 1.6 SSW 6 9 3 5 - - 0.4
01/05:30am 9.9 8.4 7.0 82 1.4 S 4 7 2 4 - - 0.4
01/05:00am 10.1 8.3 7.0 81 1.5 SSE 6 9 3 5 - - 0.4
01/04:30am 9.9 8.2 7.5 85 1.2 S 6 9 3 5 - - 0.4
01/04:00am 10.8 9.4 7.1 78 1.8 S 4 9 2 5 - - 0.4
01/03:30am 11.1 9.2 7.4 78 1.8 SSW 7 11 4 6 - - 0.4
01/03:00am 10.1 9.6 7.7 85 1.2 CALM 0 6 0 3 - - 0.2
01/02:30am 10.8 9.7 6.9 77 1.9 SSE 2 6 1 3 - - 0.2
01/02:00am 11.1 9.6 7.0 76 2.0 S 4 7 2 4 - - 0.2
01/01:30am 11.0 9.0 7.3 78 1.8 S 7 11 4 6 - - 0.2
01/01:00am 10.9 9.2 7.4 79 1.7 S 6 11 3 6 - - 0.2
01/12:30am 11.1 9.2 7.4 78 1.8 S 7 13 4 7 - - 0.2
01/12:00am 11.9 9.8 6.8 71 2.4 SSW 7 11 4 6 - - 0.2
 
Date/Time
EST
Temp
°C
App
Temp
°C
Dew
Point
Rel
Hum
%
Delta-T
°C
Wind Press
QNH
hPa
Press
MSL
hPa
Rain
since 9 am
mm
Dir
 
Spd
km/h
Gust
km/h
Spd
kts
Gust
kts
30/11:30pm 11.7 9.3 7.0 73 2.3 SSW 9 15 5 8 - - 0.2
30/11:00pm 12.0 10.1 7.5 74 2.2 SSW 7 13 4 7 - - 0.2
30/10:30pm 12.1 9.9 7.8 75 2.1 S 9 17 5 9 - - 0.2
30/10:00pm 11.8 10.1 8.3 79 1.7 S 7 11 4 6 - - 0.2
30/09:30pm 12.3 10.7 8.8 79 1.8 SSW 7 11 4 6 - - 0.2
30/09:00pm 12.7 10.8 9.0 78 1.9 SSW 9 19 5 10 - - 0.2
30/08:30pm 12.6 10.9 9.8 83 1.4 SSW 9 13 5 7 - - 0.2
30/08:00pm 11.3 11.2 9.4 88 1.0 CALM 0 0 0 0 - - 0.2
30/07:30pm 11.5 11.4 9.4 87 1.1 CALM 0 4 0 2 - - 0.2
30/07:00pm 11.6 11.5 9.3 86 1.2 CALM 0 0 0 0 - - 0.2
30/06:30pm 11.7 11.6 9.3 85 1.2 CALM 0 0 0 0 - - 0.2
30/06:00pm 12.2 12.0 9.2 82 1.5 CALM 0 0 0 0 - - 0.2

Other Formats:

Comma delimited format used in spreadsheet applications
http://www.bom.gov.au/fwo/IDN60801/IDN60801.94757.axf

JavaScript Object Notation format (JSON) in row-major order
http://www.bom.gov.au/fwo/IDN60801/IDN60801.94757.json